Terminal Aerodrome Forecast
Issued by NWS Twin Cities, MN

Home | Current Version | Previous Version | Text Only | Print | Product List | Glossary On
Versions: 1 2 3 4 5 6 7 8 9 10 11 12 13 14 15 16
969
FTUS43 KMPX 230520
TAFSTC
TAF
KSTC 230520Z 2306/2406 19008KT P6SM VCSH BKN080
     FM231000 22006KT P6SM BKN150
     FM231200 25008KT P6SM BKN150
     FM231400 28012KT P6SM SCT100
     FM231800 30015G25KT P6SM VCSH BKN050
     FM240200 32012G23KT P6SM SCT110=

USA.gov is the U.S. government's official web portal to all federal, state and local government web resources and services.